Time;durP1;ratioP1;P1;durP2;ratioP2;P2;SDS_P1;SDS_P2;PMS_P1;PMS_P2;Temp;Humidity;BMP_temperature;BMP_pressure;BME280_temperature;BME280_humidity;BME280_pressure;Samples;Min_cycle;Max_cycle;Signal;HPM_P1;HPM_P2
2022/01/25 00:26:46;;;;;;;75.68;30.17;;;;;;;-2.76;40.23;96520.63;5009629;28;20248;-62
2022/01/25 00:29:26;;;;;;;72.38;31.17;;;;;;;-2.38;39.20;96515.47;5008873;28;20197;-62
2022/01/25 00:31:53;;;;;;;65.25;28.38;;;;;;;-2.45;39.17;96519.53;5008928;28;20264;-62
2022/01/25 00:34:20;;;;;;;72.38;29.77;;;;;;;-2.85;39.78;96521.41;5008517;28;20182;-60
2022/01/25 00:36:47;;;;;;;69.22;28.70;;;;;;;-3.03;40.16;96523.00;5008405;28;20603;-62
2022/01/25 00:39:14;;;;;;;69.97;31.02;;;;;;;-2.83;39.87;96519.53;5008894;28;20253;-62
2022/01/25 00:41:41;;;;;;;78.68;31.55;;;;;;;-2.69;39.24;96517.38;5009146;28;20214;-61
2022/01/25 00:44:11;;;;;;;73.68;27.90;;;;;;;-2.68;39.26;96507.94;5010055;28;20194;-62
2022/01/25 00:46:38;;;;;;;81.20;32.38;;;;;;;-2.76;39.38;96506.03;5010450;28;20635;-61
2022/01/25 00:49:06;;;;;;;69.07;29.27;;;;;;;-3.08;39.44;96514.91;5008642;28;20194;-63
2022/01/25 00:54:26;;;;;;;87.20;36.50;;;;;;;-2.81;38.79;96507.38;5012594;28;20249;-61
2022/01/25 00:56:54;;;;;;;86.07;31.60;;;;;;;-3.16;39.73;96505.31;5012825;28;20683;-63
2022/01/25 00:59:25;;;;;;;83.80;33.92;;;;;;;-3.08;39.29;96509.78;5012691;28;20198;-62
2022/01/25 01:01:54;;;;;;;74.82;31.80;;;;;;;-2.96;38.92;96512.09;5012653;28;20194;-62
2022/01/25 01:04:22;;;;;;;77.47;31.48;;;;;;;-3.18;39.36;96508.03;5012114;28;20182;-63
2022/01/25 01:06:50;;;;;;;73.82;31.13;;;;;;;-3.21;39.32;96505.69;5012683;28;20692;-62
2022/01/25 01:09:20;;;;;;;70.50;30.13;;;;;;;-3.51;39.62;96503.22;5012312;28;20676;-63
2022/01/25 01:12:09;;;;;;;68.55;28.88;;;;;;;-3.53;40.01;96510.22;5012463;28;20221;-61
2022/01/25 01:31:18;;;;;;;68.78;26.65;;;;;;;-3.37;39.50;96494.31;5001709;28;20214;-60
2022/01/25 01:44:22;;;;;;;65.80;25.35;;;;;;;-3.36;39.51;96481.38;4991351;28;20206;-62
2022/01/25 01:47:04;;;;;;;73.35;29.13;;;;;;;-3.35;38.84;96492.44;4992926;28;20201;-61
2022/01/25 01:49:38;;;;;;;69.28;27.15;;;;;;;-3.63;39.33;96493.97;4992683;28;20286;-62
2022/01/25 01:52:06;;;;;;;70.50;26.70;;;;;;;-3.85;39.27;96490.81;4992462;28;20226;-61
2022/01/25 01:54:35;;;;;;;68.70;24.90;;;;;;;-3.72;39.22;96489.63;4992336;28;20901;-63
2022/01/25 01:57:03;;;;;;;72.38;26.17;;;;;;;-3.74;38.95;96491.50;4992768;28;20202;-62
2022/01/25 01:59:30;;;;;;;72.50;29.80;;;;;;;-3.92;39.24;96492.25;4992367;28;20705;-61
2022/01/25 02:01:57;;;;;;;76.03;30.40;;;;;;;-3.75;39.01;96469.41;4991257;28;20190;-63
2022/01/25 02:04:25;;;;;;;68.72;27.48;;;;;;;-4.06;39.42;96485.72;5002325;28;20290;-62
2022/01/25 02:06:53;;;;;;;82.40;32.17;;;;;;;-3.87;38.99;96470.47;5011595;28;20674;-66
2022/01/25 02:09:20;;;;;;;81.40;33.72;;;;;;;-3.63;38.63;96485.50;5011484;28;20217;-63
2022/01/25 02:11:47;;;;;;;80.22;30.52;;;;;;;-3.86;39.25;96474.63;5011675;28;20217;-64
2022/01/25 02:14:16;;;;;;;87.03;31.05;;;;;;;-3.77;38.59;96481.53;5011464;28;20575;-63
2022/01/25 02:24:47;;;;;;;86.68;33.03;;;;;;;-3.79;39.06;96469.78;5011383;28;20564;-63
2022/01/25 02:27:14;;;;;;;89.82;33.25;;;;;;;-3.95;39.30;96436.19;5011969;28;20584;-63
2022/01/25 02:29:42;;;;;;;95.80;35.60;;;;;;;-3.92;38.97;96457.22;5011036;28;20210;-63
2022/01/25 02:32:11;;;;;;;89.00;36.00;;;;;;;-4.02;39.35;96461.50;5011206;28;20289;-63
2022/01/25 02:34:38;;;;;;;100.93;36.83;;;;;;;-4.26;39.54;96433.63;5010976;28;20293;-62
2022/01/25 02:37:08;;;;;;;116.07;42.58;;;;;;;-4.64;39.86;96468.41;5011290;28;20272;-62
2022/01/25 02:39:42;;;;;;;111.47;42.10;;;;;;;-4.59;39.82;96453.50;5010497;28;20205;-62
2022/01/25 02:42:11;;;;;;;106.53;38.20;;;;;;;-4.24;39.01;96459.91;5010939;28;20209;-62
2022/01/25 02:44:38;;;;;;;90.00;33.80;;;;;;;-4.24;38.84;96452.25;5010629;28;20205;-61
2022/01/25 02:49:51;;;;;;;99.10;35.47;;;;;;;-4.28;39.10;96452.59;5010410;28;20198;-64
2022/01/25 02:52:18;;;;;;;100.20;39.35;;;;;;;-4.31;39.05;96422.16;5010828;28;20241;-61
2022/01/25 02:54:45;;;;;;;103.25;39.13;;;;;;;-4.32;39.69;96456.34;5010558;28;20576;-63
2022/01/25 02:57:13;;;;;;;103.05;41.28;;;;;;;-4.14;39.02;96447.97;5010841;28;20190;-62
2022/01/25 02:59:40;;;;;;;104.60;39.08;;;;;;;-4.14;38.88;96442.84;5010428;28;20681;-62
2022/01/25 03:02:07;;;;;;;99.55;38.53;;;;;;;-4.30;38.87;96439.13;5010669;28;20229;-63
2022/01/25 03:04:35;;;;;;;108.93;40.45;;;;;;;-4.61;39.28;96443.38;5010278;28;20197;-61
2022/01/25 03:07:02;;;;;;;99.40;37.50;;;;;;;-4.77;39.48;96443.03;5010844;28;20260;-61
2022/01/25 03:09:29;;;;;;;91.03;36.72;;;;;;;-4.72;39.61;96445.19;5010172;28;20197;-62
2022/01/25 03:11:57;;;;;;;95.45;37.42;;;;;;;-4.59;39.67;96444.09;5010645;28;20248;-63
2022/01/25 03:14:28;;;;;;;92.75;37.65;;;;;;;-4.31;38.92;96450.31;5009753;28;20206;-62
2022/01/25 03:24:56;;;;;;;99.57;34.72;;;;;;;-4.60;39.30;96445.00;5010639;28;20654;-62
2022/01/25 03:27:23;;;;;;;97.40;35.10;;;;;;;-4.50;38.64;96443.31;5010647;28;20209;-61
2022/01/25 03:29:50;;;;;;;103.10;38.20;;;;;;;-4.94;39.67;96455.53;5025090;28;20206;-63
2022/01/25 03:32:17;;;;;;;100.13;39.33;;;;;;;-5.02;39.20;96442.56;5010075;28;20229;-61
2022/01/25 03:34:44;;;;;;;90.05;35.97;;;;;;;-5.00;39.63;96435.59;5008442;28;20235;-62
2022/01/25 03:37:11;;;;;;;97.45;34.05;;;;;;;-4.70;38.90;96433.91;5010332;28;20532;-61
2022/01/25 03:39:38;;;;;;;90.22;34.42;;;;;;;-4.91;39.08;96442.50;5009577;28;20222;-62
2022/01/25 03:42:08;;;;;;;79.07;31.70;;;;;;;-4.95;39.23;96436.84;5009911;28;20662;-62
2022/01/25 03:44:36;;;;;;;85.70;30.20;;;;;;;-4.88;39.19;96432.03;5009791;28;20275;-62
2022/01/25 03:47:08;;;;;;;71.07;27.27;;;;;;;-5.10;39.06;96427.84;5009481;28;20684;-62
2022/01/25 03:49:52;;;;;;;74.05;28.75;;;;;;;-5.64;39.30;96415.09;5009635;28;20186;-61
2022/01/25 03:52:25;;;;;;;75.28;27.45;;;;;;;-5.48;40.27;96423.22;5009734;28;20217;-62
2022/01/25 03:54:53;;;;;;;84.72;29.15;;;;;;;-5.30;39.41;96424.31;5009205;28;20289;-61
2022/01/25 03:57:20;;;;;;;79.45;28.95;;;;;;;-5.50;40.34;96425.06;5009956;28;20203;-61
2022/01/25 03:59:47;;;;;;;83.53;29.63;;;;;;;-5.53;39.88;96417.63;5009260;28;20186;-62
2022/01/25 04:02:15;;;;;;;78.07;27.98;;;;;;;-5.74;40.65;96413.41;5009728;28;20193;-64
2022/01/25 04:04:42;;;;;;;78.20;28.75;;;;;;;-5.38;39.97;96426.66;5009411;28;20217;-61
2022/01/25 04:07:11;;;;;;;77.80;32.03;;;;;;;-5.23;39.83;96420.34;5009502;28;20209;-61
2022/01/25 04:09:39;;;;;;;71.90;27.73;;;;;;;-5.00;39.44;96415.13;5009461;28;20596;-61
2022/01/25 04:12:07;;;;;;;74.20;27.63;;;;;;;-4.98;39.38;96423.50;5009541;28;20593;-62
2022/01/25 04:14:35;;;;;;;89.57;30.00;;;;;;;-5.41;40.07;96426.09;5009276;28;20736;-61
2022/01/25 04:17:06;;;;;;;112.53;39.58;;;;;;;-5.32;39.42;96415.97;5009348;28;20234;-62
2022/01/25 04:19:38;;;;;;;118.03;39.00;;;;;;;-5.35;40.17;96416.22;5009313;28;20216;-62
2022/01/25 04:27:11;;;;;;;85.18;30.98;;;;;;;-5.75;40.50;96414.34;5013347;28;20578;-61
2022/01/25 04:29:38;;;;;;;87.53;31.90;;;;;;;-5.89;40.32;96412.88;5013079;28;20259;-62
2022/01/25 04:32:06;;;;;;;80.75;30.08;;;;;;;-4.77;39.13;96406.41;5013732;28;20224;-62
2022/01/25 04:53:56;;;;;;;449.60;113.97;;;;;;;-4.74;40.83;96401.84;5012511;28;20301;-61
2022/01/25 04:56:54;;;;;;;71.68;25.30;;;;;;;-4.86;41.39;96372.19;5013769;28;20200;-61
2022/01/25 05:02:17;;;;;;;33.70;11.68;;;;;;;-4.79;44.98;96390.38;5013226;28;20268;-61
2022/01/25 05:04:51;;;;;;;19.08;7.78;;;;;;;-4.63;44.85;96380.50;5003288;28;20210;-62
2022/01/25 05:07:34;;;;;;;16.75;7.75;;;;;;;-4.72;45.43;96401.72;5009770;28;20201;-62
2022/01/25 05:10:03;;;;;;;20.17;8.52;;;;;;;-4.67;45.35;96397.06;5006811;28;20209;-61
2022/01/25 05:12:47;;;;;;;30.05;11.23;;;;;;;-4.40;44.90;96402.47;5009355;28;20217;-64
2022/01/25 05:23:27;;;;;;;5.85;3.70;;;;;;;-4.61;45.59;96370.97;4973211;28;20203;-60
2022/01/25 05:25:54;;;;;;;36.28;14.25;;;;;;;-4.50;46.02;96379.38;4974613;28;20323;-63
2022/01/25 05:28:21;;;;;;;31.45;11.75;;;;;;;-4.24;45.44;96383.13;4974243;28;20205;-62
2022/01/25 05:30:48;;;;;;;19.30;8.55;;;;;;;-4.66;45.75;96375.66;4991692;28;20210;-63
2022/01/25 05:33:15;;;;;;;26.90;10.48;;;;;;;-4.26;45.27;96382.44;5003252;28;20231;-63
2022/01/25 05:35:42;;;;;;;23.27;9.43;;;;;;;-4.33;45.51;96372.84;4994839;28;20213;-60
2022/01/25 05:38:09;;;;;;;26.90;10.55;;;;;;;-4.77;46.39;96368.06;4992968;28;20218;-61
2022/01/25 05:40:49;;;;;;;21.35;9.07;;;;;;;-4.55;46.19;96366.16;4992756;28;20209;-61
2022/01/25 05:48:23;;;;;;;26.95;10.02;;;;;;;-4.55;45.72;96360.25;4992163;28;20208;-63
2022/01/25 05:50:51;;;;;;;19.98;8.73;;;;;;;-4.75;46.83;96368.75;4992505;28;20265;-62
2022/01/25 05:53:18;;;;;;;21.30;9.35;;;;;;;-4.58;46.63;96355.38;4990483;28;20701;-66
2022/01/25 05:55:45;;;;;;;27.45;12.38;;;;;;;-4.32;45.66;96359.13;4992542;28;20202;-62
2022/01/25 05:58:12;;;;;;;16.95;7.95;;;;;;;-4.56;46.62;96359.41;4992176;28;20256;-62
2022/01/25 06:00:39;;;;;;;61.03;20.55;;;;;;;-3.93;46.14;96371.09;4992161;28;20187;-62
2022/01/25 06:03:07;;;;;;;36.13;12.95;;;;;;;-4.25;46.14;96363.59;4991491;28;20198;-64
2022/01/25 06:05:34;;;;;;;48.85;18.52;;;;;;;-3.75;47.34;96377.22;4992159;28;20191;-61
2022/01/25 06:08:03;;;;;;;25.67;9.18;;;;;;;-4.06;45.72;96367.16;4991844;28;20198;-63
2022/01/25 06:10:31;;;;;;;29.42;12.52;;;;;;;-4.08;45.08;96376.72;4994105;28;20205;-62
2022/01/25 06:12:58;;;;;;;27.95;11.82;;;;;;;-3.92;44.99;96385.53;4993528;28;20297;-62
2022/01/25 06:15:25;;;;;;;25.42;9.25;;;;;;;-4.07;45.05;96375.78;4995122;28;20600;-62
2022/01/25 06:17:53;;;;;;;31.30;12.20;;;;;;;-3.66;43.96;96378.97;4991788;28;20231;-62
2022/01/25 06:20:19;;;;;;;35.13;15.75;;;;;;;-3.94;44.52;96382.28;4990667;28;20693;-62
2022/01/25 06:22:47;;;;;;;18.10;8.23;;;;;;;-4.53;46.45;96383.94;4991955;28;20207;-63
2022/01/25 06:25:13;;;;;;;70.20;28.10;;;;;;;-4.12;46.79;96383.84;4992145;28;20190;-64
2022/01/25 06:27:42;;;;;;;26.83;10.20;;;;;;;-4.21;45.85;96389.72;4991990;28;20221;-62
2022/01/25 06:30:13;;;;;;;34.97;16.15;;;;;;;-4.44;46.64;96378.88;4991553;28;20272;-63
2022/01/25 06:32:41;;;;;;;33.88;14.82;;;;;;;-3.83;45.17;96374.50;4991390;28;20285;-61
2022/01/25 06:35:08;;;;;;;33.28;10.68;;;;;;;-3.89;44.87;96375.03;4990884;28;20661;-64
2022/01/25 06:37:35;;;;;;;40.08;17.15;;;;;;;-3.39;44.07;96371.47;4991428;28;20210;-61
2022/01/25 06:40:05;;;;;;;36.75;16.23;;;;;;;-3.38;43.75;96380.78;4991202;28;20179;-63
2022/01/25 06:42:32;;;;;;;35.78;17.33;;;;;;;-3.54;43.71;96349.72;4991816;28;20191;-61
2022/01/25 06:45:02;;;;;;;37.05;16.08;;;;;;;-2.97;43.43;96384.03;4990980;28;20202;-62
2022/01/25 06:47:30;;;;;;;31.20;12.00;;;;;;;-3.53;43.49;96376.97;4991117;28;20199;-61
2022/01/25 06:49:57;;;;;;;30.95;13.15;;;;;;;-3.87;44.29;96375.72;4990730;28;20223;-62
2022/01/25 06:52:24;;;;;;;34.15;14.43;;;;;;;-4.20;44.94;96366.56;4991424;28;20234;-63
2022/01/25 06:54:51;;;;;;;32.25;13.05;;;;;;;-3.43;43.60;96359.84;4990956;28;20206;-64
2022/01/25 06:57:18;;;;;;;25.00;10.90;;;;;;;-3.48;43.28;96349.19;4991510;28;20202;-64
2022/01/25 06:59:45;;;;;;;35.95;15.10;;;;;;;-3.08;42.90;96365.25;4990718;28;20234;-62
2022/01/25 07:02:12;;;;;;;15.77;6.30;;;;;;;-3.84;44.83;96366.94;4990635;28;20191;-63
2022/01/25 07:04:39;;;;;;;30.60;12.63;;;;;;;-3.30;43.69;96365.53;4990436;28;20267;-64
2022/01/25 07:07:06;;;;;;;37.35;14.82;;;;;;;-2.61;42.30;96360.97;4991002;28;20902;-61
2022/01/25 07:09:35;;;;;;;33.00;13.15;;;;;;;-3.27;43.04;96361.91;4991027;28;20179;-63
2022/01/25 07:12:04;;;;;;;51.17;20.85;;;;;;;-2.82;42.54;96362.09;4990928;28;20298;-62
2022/01/25 07:14:32;;;;;;;55.65;22.20;;;;;;;-3.11;42.97;96357.84;4990537;28;20202;-64
2022/01/25 07:16:59;;;;;;;43.70;21.00;;;;;;;-3.15;42.92;96356.50;4990754;28;20234;-61
2022/01/25 07:19:26;;;;;;;38.22;14.63;;;;;;;-3.85;43.61;96355.88;4990650;28;20199;-62
2022/01/25 07:21:53;;;;;;;77.18;31.90;;;;;;;-2.90;42.52;96349.19;4990745;28;20209;-61
2022/01/25 07:24:20;;;;;;;128.38;51.65;;;;;;;-2.57;41.68;96359.75;4990000;28;20225;-61
2022/01/25 07:26:48;;;;;;;130.95;55.25;;;;;;;-2.29;40.88;96350.34;4990897;28;20198;-62
2022/01/25 07:29:15;;;;;;;143.85;60.83;;;;;;;-3.02;41.15;96360.53;4990094;28;20206;-62
2022/01/25 07:31:44;;;;;;;150.05;65.03;;;;;;;-2.91;40.90;96357.81;4990767;28;20206;-62
2022/01/25 07:34:12;;;;;;;71.32;30.27;;;;;;;-3.00;41.83;96348.38;4990309;28;20260;-62
2022/01/25 07:36:42;;;;;;;65.45;29.02;;;;;;;-3.29;41.58;96349.22;4991063;28;20224;-63
2022/01/25 07:39:23;;;;;;;113.80;45.03;;;;;;;-2.58;41.00;96344.50;4988520;28;20213;-62
2022/01/25 07:41:59;;;;;;;94.15;35.03;;;;;;;-2.38;42.86;96356.31;4990906;28;20207;-62
2022/01/25 07:44:39;;;;;;;120.90;48.67;;;;;;;-2.05;40.71;96348.09;4989558;28;20249;-62
2022/01/25 07:47:07;;;;;;;114.90;52.45;;;;;;;-2.07;40.32;96352.56;4991093;28;20736;-63
2022/01/25 07:49:35;;;;;;;123.13;53.55;;;;;;;-2.20;40.32;96354.63;4990573;28;20183;-62
2022/01/25 07:52:03;;;;;;;93.82;41.72;;;;;;;-2.01;39.97;96349.44;4991607;28;20626;-61
2022/01/25 07:54:31;;;;;;;133.90;55.92;;;;;;;-1.78;39.73;96349.81;4990647;28;20201;-61
2022/01/25 07:56:58;;;;;;;133.82;57.70;;;;;;;-1.41;39.23;96333.34;4991081;28;20211;-62
2022/01/25 07:59:25;;;;;;;121.45;52.63;;;;;;;-1.29;38.43;96332.16;4989601;28;20202;-61
2022/01/25 08:01:53;;;;;;;119.57;52.70;;;;;;;-1.00;38.05;96346.56;4990550;28;20216;-62
2022/01/25 08:04:21;;;;;;;114.50;53.13;;;;;;;-1.40;38.31;96339.28;4990421;28;20245;-61
2022/01/25 08:06:57;;;;;;;115.32;48.45;;;;;;;-1.18;38.22;96329.38;4990491;28;20217;-62
2022/01/25 08:09:38;;;;;;;126.00;53.78;;;;;;;-1.42;39.05;96342.00;4980670;28;20236;-61
2022/01/25 08:12:12;;;;;;;117.47;52.92;;;;;;;-1.19;41.47;96340.59;4990382;28;20226;-61
2022/01/25 08:15:12;;;;;;;118.03;52.45;;;;;;;-1.13;38.32;96337.44;4988916;28;20222;-62
2022/01/25 08:17:57;;;;;;;125.43;56.67;;;;;;;-1.05;38.79;96324.66;4989443;28;20282;-65
2022/01/25 08:20:36;;;;;;;102.10;41.83;;;;;;;-0.71;38.15;96326.50;4990445;28;20261;-62
2022/01/25 08:23:17;;;;;;;112.53;51.55;;;;;;;-0.53;37.85;96325.47;4989624;28;20193;-61
2022/01/25 08:25:58;;;;;;;65.82;30.88;;;;;;;-0.46;37.75;96325.69;4930264;29;20704;-62
2022/01/25 08:28:38;;;;;;;38.92;17.92;;;;;;;-0.79;38.37;96326.44;4836465;29;20218;-62
2022/01/25 08:31:20;;;;;;;39.10;17.67;;;;;;;-1.02;38.89;96326.91;4800780;29;20209;-63
2022/01/25 08:34:08;;;;;;;30.50;14.98;;;;;;;-1.10;38.93;96342.31;4798198;29;20302;-61
2022/01/25 08:36:49;;;;;;;32.30;13.98;;;;;;;-0.95;39.06;96328.91;4794199;29;20217;-61
2022/01/25 08:39:43;;;;;;;30.17;13.20;;;;;;;-1.39;39.77;96330.63;4789667;29;20212;-61
2022/01/25 08:42:20;;;;;;;23.98;10.60;;;;;;;-1.31;39.38;96321.22;4800572;29;20216;-62
2022/01/25 08:44:50;;;;;;;32.97;14.65;;;;;;;-1.46;40.07;96314.19;4795759;29;21097;-62
2022/01/25 08:47:36;;;;;;;20.08;9.30;;;;;;;-1.32;39.30;96321.38;4800732;29;20233;-61
2022/01/25 08:50:34;;;;;;;36.10;16.45;;;;;;;-0.88;38.96;96312.72;4790590;29;20209;-61
2022/01/25 08:53:07;;;;;;;25.48;11.40;;;;;;;-0.84;38.81;96308.06;4821809;29;20330;-61
2022/01/25 08:55:51;;;;;;;24.42;10.52;;;;;;;-1.26;39.16;96316.44;4849109;29;20902;-63
2022/01/25 08:58:44;;;;;;;30.58;13.80;;;;;;;-0.87;38.82;96301.47;4817880;29;20303;-62
2022/01/25 09:01:10;;;;;;;31.85;14.93;;;;;;;-0.25;37.95;96302.91;4818858;29;20208;-63
2022/01/25 09:03:38;;;;;;;31.00;16.00;;;;;;;-0.10;37.88;96280.78;4867517;29;20216;-62
2022/01/25 09:06:05;;;;;;;37.42;19.35;;;;;;;0.71;36.67;96292.84;4892540;29;20281;-62
2022/01/25 09:08:32;;;;;;;40.58;19.35;;;;;;;0.17;36.76;96298.56;4919591;28;20215;-62
2022/01/25 09:11:02;;;;;;;33.55;14.32;;;;;;;-0.76;37.83;96301.22;4949486;28;20742;-61
2022/01/25 09:13:31;;;;;;;28.77;15.25;;;;;;;-0.79;38.51;96293.81;4951882;29;20215;-63
2022/01/25 09:15:58;;;;;;;29.38;12.93;;;;;;;-0.80;38.93;96283.66;4952615;28;20289;-62
2022/01/25 09:18:27;;;;;;;29.42;11.15;;;;;;;-0.43;38.00;96286.75;4952214;28;20219;-62
2022/01/25 09:20:55;;;;;;;29.73;13.70;;;;;;;-0.37;37.65;96283.56;4952759;28;20207;-61
2022/01/25 09:23:24;;;;;;;33.15;15.48;;;;;;;0.53;36.36;96274.13;4952169;29;20211;-63
2022/01/25 09:25:51;;;;;;;35.33;16.27;;;;;;;0.49;36.31;96272.84;4953035;29;20224;-63
2022/01/25 09:28:19;;;;;;;31.95;15.52;;;;;;;1.32;35.14;96273.44;4952297;28;20326;-62
2022/01/25 09:30:46;;;;;;;33.00;15.40;;;;;;;1.73;34.49;96269.78;4952668;28;20211;-64
2022/01/25 09:33:19;;;;;;;25.33;12.40;;;;;;;2.03;33.39;96271.56;4952718;28;20224;-61
2022/01/25 09:35:46;;;;;;;36.75;18.92;;;;;;;2.60;33.45;96259.09;4993440;28;20636;-61
2022/01/25 09:38:13;;;;;;;29.60;13.05;;;;;;;1.53;33.81;96255.63;4993421;28;20209;-62
2022/01/25 09:40:40;;;;;;;32.80;15.13;;;;;;;1.62;34.41;96268.38;4993332;28;20261;-60
2022/01/25 09:43:07;;;;;;;50.67;20.75;;;;;;;1.12;34.71;96265.25;4992859;28;20211;-62
2022/01/25 09:45:36;;;;;;;21.95;10.30;;;;;;;0.83;34.69;96254.63;4993370;28;20290;-63
2022/01/25 09:48:05;;;;;;;28.45;14.00;;;;;;;0.34;36.38;96269.28;4993092;28;20199;-62
2022/01/25 09:50:36;;;;;;;26.55;13.38;;;;;;;0.88;35.02;96258.34;4993283;28;20206;-61
2022/01/25 09:53:04;;;;;;;28.20;13.93;;;;;;;0.76;35.57;96244.16;4992946;28;20218;-62
2022/01/25 09:55:34;;;;;;;32.17;16.23;;;;;;;1.69;34.97;96258.16;4994386;28;20187;-61
2022/01/25 09:58:02;;;;;;;28.55;15.35;;;;;;;1.95;33.93;96243.97;4994305;28;20641;-61
2022/01/25 10:00:32;;;;;;;20.67;9.98;;;;;;;1.06;34.78;96232.34;4993842;28;20206;-62
2022/01/25 10:05:42;;;;;;;30.77;15.18;;;;;;;1.38;34.55;96240.03;4992974;28;20209;-62
2022/01/25 10:08:12;;;;;;;30.15;14.93;;;;;;;2.76;33.48;96228.72;4992485;28;20289;-61
2022/01/25 10:10:42;;;;;;;28.73;15.40;;;;;;;2.61;33.69;96225.28;4992497;28;20206;-63
2022/01/25 10:13:21;;;;;;;23.55;10.13;;;;;;;2.23;33.43;96210.69;4992365;28;20280;-61
2022/01/25 10:16:02;;;;;;;29.35;15.02;;;;;;;2.42;33.49;96222.38;4992642;28;20293;-61
2022/01/25 10:18:50;;;;;;;28.05;14.20;;;;;;;2.50;33.70;96223.09;4992770;28;20260;-61
2022/01/25 10:21:21;;;;;;;30.65;16.25;;;;;;;2.75;33.06;96211.59;4993143;28;20220;-61
2022/01/25 10:24:14;;;;;;;29.15;11.60;;;;;;;1.68;33.60;96215.22;4991759;28;20301;-61
2022/01/25 10:26:54;;;;;;;27.92;14.63;;;;;;;2.01;33.78;96220.03;4992877;28;20210;-63
2022/01/25 10:29:23;;;;;;;29.02;14.65;;;;;;;1.10;34.91;96225.06;4992081;28;20221;-61
2022/01/25 10:31:58;;;;;;;29.95;14.20;;;;;;;0.53;35.91;96217.41;4992797;28;20220;-62
2022/01/25 10:34:49;;;;;;;29.85;13.80;;;;;;;0.71;35.60;96197.38;4991296;28;20767;-62
2022/01/25 10:37:24;;;;;;;31.73;16.52;;;;;;;0.74;36.03;96225.47;4992269;28;20781;-61
2022/01/25 10:39:52;;;;;;;28.75;14.95;;;;;;;0.92;35.79;96213.19;4991584;28;20212;-61
2022/01/25 10:42:26;;;;;;;33.60;16.23;;;;;;;1.28;35.50;96197.28;4992414;28;20199;-61
2022/01/25 10:45:05;;;;;;;34.22;15.13;;;;;;;1.40;34.88;96190.78;4992009;28;20242;-63
2022/01/25 10:47:38;;;;;;;30.67;15.25;;;;;;;1.55;35.30;96192.47;4992288;28;20195;-62
2022/01/25 10:50:18;;;;;;;30.30;14.60;;;;;;;1.71;35.30;96179.50;4991920;28;20256;-63
2022/01/25 10:52:46;;;;;;;28.10;14.52;;;;;;;1.64;35.18;96175.97;4992101;28;20210;-62
2022/01/25 10:55:16;;;;;;;32.08;16.63;;;;;;;2.30;34.55;96174.63;4991753;28;20203;-62
2022/01/25 10:57:55;;;;;;;26.30;13.15;;;;;;;1.68;34.78;96173.88;4991928;28;20195;-62
2022/01/25 11:00:31;;;;;;;30.17;14.82;;;;;;;1.46;35.45;96174.63;4992045;28;20661;-63
2022/01/25 11:02:58;;;;;;;28.52;15.05;;;;;;;0.82;36.12;96167.91;4991537;28;20226;-63
2022/01/25 11:05:26;;;;;;;30.13;15.98;;;;;;;1.35;35.89;96167.25;4991846;28;20282;-62
2022/01/25 11:07:53;;;;;;;31.50;16.10;;;;;;;1.60;35.74;96161.00;4991714;28;20198;-62
2022/01/25 11:10:21;;;;;;;23.80;11.80;;;;;;;1.60;34.90;96155.81;4991653;28;20183;-61
2022/01/25 11:13:06;;;;;;;29.83;14.95;;;;;;;1.45;35.68;96158.31;4991531;28;20595;-61
2022/01/25 11:15:34;;;;;;;31.40;14.30;;;;;;;1.47;35.00;96155.56;4991415;28;20199;-61
2022/01/25 11:18:03;;;;;;;32.92;16.70;;;;;;;1.28;35.68;96155.97;4991031;28;20257;-63
2022/01/25 11:20:30;;;;;;;31.02;15.00;;;;;;;0.99;35.76;96147.03;4991340;28;20194;-62
2022/01/25 11:23:00;;;;;;;26.90;13.38;;;;;;;1.22;35.55;96157.47;4991195;28;20697;-63
2022/01/25 11:25:35;;;;;;;34.00;13.55;;;;;;;-0.09;36.70;96153.56;4989734;28;20198;-61
2022/01/25 11:28:02;;;;;;;29.33;14.40;;;;;;;0.18;37.86;96150.69;4991009;28;20226;-60
2022/01/25 11:30:30;;;;;;;28.40;14.15;;;;;;;0.94;36.39;96128.66;4991698;28;20283;-62
2022/01/25 11:32:58;;;;;;;22.90;11.43;;;;;;;0.31;36.59;96140.69;4990766;28;20199;-61
2022/01/25 11:35:26;;;;;;;30.17;14.05;;;;;;;0.42;36.44;96140.38;4990500;28;20728;-61
2022/01/25 11:37:53;;;;;;;29.85;14.95;;;;;;;0.70;36.68;96115.81;4990531;28;20194;-61
2022/01/25 11:40:38;;;;;;;32.45;13.80;;;;;;;0.84;36.62;96122.88;4991009;28;20260;-62
2022/01/25 11:43:07;;;;;;;28.17;12.07;;;;;;;0.29;36.59;96121.22;4990495;28;20209;-63
2022/01/25 11:45:38;;;;;;;29.15;14.13;;;;;;;0.83;36.49;96116.13;4991029;28;20682;-62
2022/01/25 11:48:05;;;;;;;39.17;14.82;;;;;;;1.41;35.71;96107.16;4990671;28;20202;-62
2022/01/25 11:50:36;;;;;;;33.25;14.85;;;;;;;1.30;36.08;96097.22;4991112;28;20210;-62
2022/01/25 11:53:10;;;;;;;40.88;17.83;;;;;;;1.71;35.72;96090.84;4990639;28;20261;-63
2022/01/25 11:55:39;;;;;;;25.27;11.45;;;;;;;1.70;34.87;96090.03;4990522;28;20202;-62
2022/01/25 11:58:26;;;;;;;31.38;16.02;;;;;;;2.26;34.92;96088.81;4990374;28;20925;-62
2022/01/25 12:00:59;;;;;;;31.13;13.73;;;;;;;1.97;34.70;96091.31;4991141;28;20213;-62
2022/01/25 12:03:41;;;;;;;29.73;16.13;;;;;;;3.29;33.74;96081.88;4990805;28;20213;-62
2022/01/25 12:06:21;;;;;;;31.77;15.98;;;;;;;3.22;32.40;96083.59;4990474;28;20558;-63
2022/01/25 12:09:15;;;;;;;31.67;14.38;;;;;;;3.95;32.11;96072.03;4990329;28;20190;-63
2022/01/25 12:11:48;;;;;;;28.80;15.57;;;;;;;3.90;31.15;96073.56;4990985;28;20204;-61
2022/01/25 12:14:21;;;;;;;34.58;16.38;;;;;;;4.78;30.73;96053.09;4990010;28;20210;-61
2022/01/25 12:17:03;;;;;;;22.75;11.85;;;;;;;5.43;29.58;96047.38;4990138;28;20230;-63
2022/01/25 12:19:44;;;;;;;29.20;15.13;;;;;;;6.16;28.29;96039.53;4990167;28;20646;-61
2022/01/25 12:22:32;;;;;;;28.10;15.38;;;;;;;7.10;27.44;96036.38;4990502;28;20252;-62
2022/01/25 12:25:25;;;;;;;31.90;14.57;;;;;;;6.40;28.22;96045.94;4990117;28;20212;-61
2022/01/25 12:28:22;;;;;;;29.27;15.40;;;;;;;6.67;27.98;96043.13;4990535;28;20216;-61
2022/01/25 12:30:49;;;;;;;31.15;16.60;;;;;;;7.34;27.04;96034.09;4990683;28;20205;-62
2022/01/25 12:33:21;;;;;;;27.55;15.50;;;;;;;7.87;26.68;96035.41;4990363;28;20549;-61
2022/01/25 12:36:03;;;;;;;29.85;15.68;;;;;;;8.81;24.89;96018.56;4990414;28;20669;-61
2022/01/25 12:38:39;;;;;;;31.35;16.30;;;;;;;9.91;23.99;96009.56;4990759;28;20690;-61
2022/01/25 12:41:23;;;;;;;28.52;15.63;;;;;;;9.51;24.33;96005.88;4991485;28;20228;-60
2022/01/25 12:43:51;;;;;;;34.47;16.65;;;;;;;11.09;23.14;96006.56;4990558;28;20194;-61
2022/01/25 12:46:22;;;;;;;26.42;15.82;;;;;;;10.28;23.56;96000.56;4992471;28;20198;-61
2022/01/25 12:48:55;;;;;;;29.63;16.20;;;;;;;12.01;22.37;95992.31;4994101;28;20274;-60
2022/01/25 12:51:31;;;;;;;23.38;13.07;;;;;;;11.15;21.95;95986.47;4994479;28;20199;-61
2022/01/25 12:54:01;;;;;;;23.30;14.55;;;;;;;11.07;21.84;95985.03;4993798;28;20277;-62
2022/01/25 12:56:36;;;;;;;21.73;12.93;;;;;;;7.46;24.23;95998.53;4994450;28;20202;-62
2022/01/25 12:59:15;;;;;;;25.42;15.38;;;;;;;10.17;23.25;95981.19;4994085;28;20201;-61
2022/01/25 13:01:45;;;;;;;23.50;14.07;;;;;;;10.26;22.87;95980.84;4993246;28;20624;-60
2022/01/25 13:04:12;;;;;;;23.55;14.30;;;;;;;10.28;22.48;95984.84;4993261;28;20175;-62
2022/01/25 13:06:43;;;;;;;23.13;14.60;;;;;;;9.49;22.95;95979.19;4993862;28;20269;-61
2022/01/25 13:09:24;;;;;;;27.75;17.33;;;;;;;9.75;23.17;95978.78;4993460;28;20269;-62
2022/01/25 13:17:06;;;;;;;21.52;13.55;;;;;;;9.09;23.55;95977.03;4993810;28;20338;-60
2022/01/25 13:19:39;;;;;;;23.13;13.95;;;;;;;9.62;22.84;95971.13;4993186;28;20245;-61
2022/01/25 13:22:13;;;;;;;25.15;13.90;;;;;;;9.36;22.67;95974.13;4993931;28;20194;-61
2022/01/25 13:25:00;;;;;;;23.10;14.13;;;;;;;10.39;21.90;95970.16;4992838;28;20238;-60
2022/01/25 13:27:32;;;;;;;22.90;13.30;;;;;;;10.31;21.77;95963.41;4993699;28;20568;-62
2022/01/25 13:32:50;;;;;;;22.35;13.38;;;;;;;9.66;22.26;95962.63;4993800;28;20321;-64
2022/01/25 13:35:31;;;;;;;23.65;13.75;;;;;;;10.16;22.27;95970.94;4993434;28;20236;-62
2022/01/25 13:38:10;;;;;;;29.42;16.10;;;;;;;10.66;21.88;95974.69;4993156;28;20198;-61
2022/01/25 13:40:55;;;;;;;26.35;14.88;;;;;;;11.14;20.93;95969.97;4994022;28;20194;-62
2022/01/25 13:46:12;;;;;;;44.47;24.17;;;;;;;10.23;21.60;95966.41;4993612;28;20207;-60
2022/01/25 13:48:40;;;;;;;22.73;13.88;;;;;;;10.37;21.39;95959.09;4993011;28;20209;-60